Nearby METAR Reports

 

LGTS - THESALONIKI, GR
Distance from station: 85km
: 15/01/2021 20:20
Few Clouds
Few Clouds

: 9 km/h
: 2°C
Wind Chill: -1°C
: -3°C
: 70%
: 1016 hPa
Clouds: Few Clouds
Visibility: 10 km
Cloud details: Few Clouds 762 m
2021/01/15 18:20 LGTS 151820Z 10005KT 9999 FEW025 02/M03 Q1016 NOSIG
LGAV - ATHENS, GR
Distance from station: 546km
: 15/01/2021 20:20


: 19 km/h
: 7°C
Wind Chill: 4°C
: 1°C
: 66%
: 1014 hPa
Clouds:
Visibility: 10 km
Cloud details: Few Clouds 762 m
1219 m
2021/01/15 18:20 LGAV 151820Z 02010KT 9999 FEW025 BKN040 07/01 Q1014 NOSIG
 
LGKZ - KOZANI, GR
Distance from station: 130km
: 15/01/2021 20:20


: 13 km/h
: -3°C
Wind Chill: -7°C
: -10°C
: 59%
: 1013 hPa
2021/01/15 18:20 LGKZ 151820Z AUTO 34007KT 310V020 //// // ////// M03/M10 Q1013 RE//
LGIO - IOANNINA, GR
Distance from station: 265km
: 15/01/2021 19:50
Few Clouds
Few Clouds

: 6 km/h
: 4°C
: 0°C
: 75%
: 1010 hPa
Clouds: Few Clouds
Visibility: 10 km
Cloud details: Few Clouds 1067 m
2021/01/15 17:50 LGIO 151750Z 33003KT 9999 FEW035 04/M00 Q1010
 
LGKV - KABALA, GR
Distance from station: 220km
: 15/01/2021 19:50
Few Clouds
Few Clouds

: 7 km/h
: 3°C
Wind Chill: 1°C
: -1°C
: 75%
: 1015 hPa
Clouds: Few Clouds
Visibility: 10 km
Cloud details: Few Clouds 914 m
2021/01/15 17:50 LGKV 151750Z 01004KT 9999 FEW030 03/M01 Q1015
LGAL - ALEXANDROUPOLI, GR
Distance from station: 367km
: 15/01/2021 19:50
Few Clouds
Few Clouds
   varies
: varies 6 km/h
: 1°C
: -6°C
: 60%
: 1016 hPa
Clouds: Few Clouds
Visibility: 10 km
Cloud details: Few Clouds 762 m
2021/01/15 17:50 LGAL 151750Z VRB03KT 9999 FEW025 01/M06 Q1016
 
LGSA - CHANIA,CRETE, GR
Distance from station: 866km
: 15/01/2021 20:20
 ,
,

: 9 km/h
: 11°C
: 10°C
: 94%
: 1011 hPa
:
Clouds:
Visibility: 7 km
Cloud details: Few Clouds 366 m
762 m
2134 m
2021/01/15 18:20 LGSA 151820Z 10005KT 7000 -RA FEW012 BKN025 BKN070 11/10 Q1011
LGIR - HERAKLIO, CRETE, GR
Distance from station: 882km
: 15/01/2021 20:20

   calm
:
: 11°C
: 10°C
: 94%
: 1011 hPa
Clouds:
Visibility: 9 km
Cloud details: Few Clouds 305 m
549 m
762 m
2021/01/15 18:20 LGIR 151820Z 00000KT 9000 FEW010 SCT018 BKN025 11/10 Q1011 NOSIG
 
LGRP - RHODES, GR
Distance from station: 1.318km
: 15/01/2021 20:20


: 15 km/h
: 13°C
: 6°C
: 63%
: 1010 hPa
Clouds:
Visibility: 10 km
Cloud details: 762 m
2021/01/15 18:20 LGRP 151820Z 29008KT 9999 SCT025 13/06 Q1010 NOSIG
LGLR - LARISSA, GR
Distance from station: 182km
: 15/01/2021 19:50

   calm
:
: 4°C
: -1°C
: 70%
: 1015 hPa
Clouds:
Visibility: 10 km
Cloud details: Few Clouds 914 m
2438 m
2021/01/15 17:50 LGLR 151750Z 00000KT 9999 FEW030 BKN080 04/M01 Q1015 BLU